Time;durP1;ratioP1;P1;durP2;ratioP2;P2;SDS_P1;SDS_P2;PMS_P1;PMS_P2;Temp;Humidity;BMP_temperature;BMP_pressure;BME280_temperature;BME280_humidity;BME280_pressure;Samples;Min_cycle;Max_cycle;Signal;HPM_P1;HPM_P2
2024/04/14 00:00:10;;;;;;;3.95;1.40;;;;;;;16.85;45.66;96174.06;5414695;26;20246;-79
2024/04/14 00:02:35;;;;;;;3.78;1.52;;;;;;;16.93;45.29;96171.41;5408423;26;20240;-79
2024/04/14 00:05:00;;;;;;;1.65;1.48;;;;;;;16.94;45.30;96173.84;5442473;26;20239;-79
2024/04/14 00:07:26;;;;;;;2.83;1.63;;;;;;;17.02;44.70;96170.38;5446177;26;20247;-79
2024/04/14 00:09:51;;;;;;;1.65;1.55;;;;;;;17.07;44.61;96164.63;5423631;26;20243;-79
2024/04/14 00:12:16;;;;;;;1.70;1.20;;;;;;;17.06;44.59;96163.81;5437118;26;20240;-78
2024/04/14 00:14:42;;;;;;;2.58;1.58;;;;;;;17.09;44.75;96158.22;5408657;26;20239;-80
2024/04/14 00:17:07;;;;;;;3.75;1.40;;;;;;;17.10;44.59;96151.97;5441340;26;20261;-79
2024/04/14 00:19:32;;;;;;;2.65;1.45;;;;;;;17.15;44.38;96149.66;5426636;26;20348;-80
2024/04/14 00:21:58;;;;;;;3.17;1.67;;;;;;;17.17;44.70;96142.41;5435511;26;20242;-79
2024/04/14 00:24:23;;;;;;;2.28;1.27;;;;;;;17.25;44.78;96134.50;5441025;26;20237;-79
2024/04/14 00:26:49;;;;;;;2.40;1.10;;;;;;;17.22;44.93;96139.25;5450311;26;20728;-80
2024/04/14 00:29:14;;;;;;;2.28;1.40;;;;;;;17.26;44.79;96144.00;5395788;26;20336;-79
2024/04/14 00:31:39;;;;;;;1.70;1.60;;;;;;;17.31;44.77;96137.38;5407070;26;20814;-80
2024/04/14 00:34:05;;;;;;;1.95;1.42;;;;;;;17.33;44.71;96138.06;5434939;26;20235;-80
2024/04/14 00:36:30;;;;;;;2.47;1.60;;;;;;;17.30;45.14;96138.38;5404268;26;20284;-80
2024/04/14 00:38:56;;;;;;;1.35;1.25;;;;;;;17.29;45.07;96134.94;5433055;26;20234;-79
2024/04/14 00:41:21;;;;;;;2.42;1.60;;;;;;;17.34;44.67;96131.81;5438903;26;20242;-79
2024/04/14 00:43:47;;;;;;;1.75;1.35;;;;;;;17.39;44.81;96132.09;5432826;26;20234;-80
2024/04/14 00:46:12;;;;;;;2.05;1.60;;;;;;;17.39;45.30;96126.84;5424254;26;20232;-80
2024/04/14 00:48:37;;;;;;;2.20;1.50;;;;;;;17.42;45.26;96124.69;5430911;26;20290;-80
2024/04/14 00:51:03;;;;;;;3.25;1.25;;;;;;;17.41;45.34;96115.19;5405614;26;20310;-79
2024/04/14 00:53:31;;;;;;;2.05;1.20;;;;;;;17.41;45.62;96122.25;5427116;26;20244;-79
2024/04/14 00:55:57;;;;;;;2.38;1.27;;;;;;;17.42;45.77;96122.06;5432101;26;20254;-80
2024/04/14 00:58:22;;;;;;;2.47;1.10;;;;;;;17.50;45.34;96119.38;5429036;26;20238;-80
2024/04/14 01:00:48;;;;;;;1.58;1.30;;;;;;;17.51;45.70;96113.13;5444019;26;20284;-80
2024/04/14 01:03:13;;;;;;;3.70;1.38;;;;;;;17.46;45.36;96115.44;5393539;26;20242;-80
2024/04/14 01:05:38;;;;;;;1.33;1.20;;;;;;;17.48;45.55;96116.09;5405381;26;20246;-80
2024/04/14 01:08:04;;;;;;;4.47;1.10;;;;;;;17.43;45.70;96109.75;5434551;26;20271;-79
2024/04/14 01:10:30;;;;;;;2.03;1.17;;;;;;;17.47;45.87;96124.16;5401910;26;20270;-79
2024/04/14 01:12:55;;;;;;;3.28;1.20;;;;;;;17.45;46.29;96124.31;5403721;26;20239;-80
2024/04/14 01:15:21;;;;;;;1.83;1.20;;;;;;;17.47;46.62;96122.34;5388780;26;20251;-79
2024/04/14 01:17:46;;;;;;;4.72;1.60;;;;;;;17.46;46.51;96109.38;5449216;26;20254;-79
2024/04/14 01:20:12;;;;;;;1.73;1.10;;;;;;;17.47;46.98;96111.03;5432401;26;20239;-79
2024/04/14 01:22:38;;;;;;;1.65;1.20;;;;;;;17.50;46.75;96110.69;5394315;26;20251;-80
2024/04/14 01:25:06;;;;;;;3.00;1.27;;;;;;;17.54;47.02;96109.31;5401254;26;20239;-80
2024/04/14 01:27:31;;;;;;;4.00;1.40;;;;;;;17.62;47.19;96104.00;5424637;26;20313;-80
2024/04/14 01:29:57;;;;;;;2.60;1.38;;;;;;;17.61;47.05;96106.81;5402649;26;20249;-79
2024/04/14 01:32:22;;;;;;;1.25;1.10;;;;;;;17.68;47.16;96108.56;5434148;26;20234;-80
2024/04/14 01:34:47;;;;;;;2.38;1.08;;;;;;;17.77;47.34;96098.81;5432334;26;20241;-79
2024/04/14 01:37:13;;;;;;;5.82;1.65;;;;;;;17.81;46.97;96102.72;5431977;26;20247;-80
2024/04/14 01:39:38;;;;;;;2.80;1.20;;;;;;;17.77;47.07;96097.00;5389577;26;20741;-79
2024/04/14 01:42:03;;;;;;;1.70;1.33;;;;;;;17.83;46.74;96100.72;5439046;26;20297;-79
2024/04/14 01:44:29;;;;;;;3.17;1.05;;;;;;;17.88;46.85;96098.38;5424603;26;20252;-80
2024/04/14 01:46:54;;;;;;;2.88;1.42;;;;;;;17.91;46.78;96105.06;5434846;26;20251;-79
2024/04/14 01:49:20;;;;;;;1.77;1.13;;;;;;;17.93;46.88;96103.91;5389656;26;20337;-79
2024/04/14 01:51:45;;;;;;;2.15;1.23;;;;;;;17.90;47.07;96106.88;5439796;26;20285;-79
2024/04/14 01:54:12;;;;;;;10.00;2.13;;;;;;;17.98;46.63;96101.56;5401647;26;20243;-80
2024/04/14 01:56:37;;;;;;;1.30;1.20;;;;;;;18.00;46.88;96098.75;5397670;26;20240;-80
2024/04/14 01:59:03;;;;;;;1.00;0.90;;;;;;;18.02;46.75;96099.38;5399922;26;20277;-80
2024/04/14 02:01:29;;;;;;;2.30;1.27;;;;;;;18.03;46.34;96095.78;5395511;26;20782;-80
2024/04/14 02:03:54;;;;;;;2.05;1.05;;;;;;;18.02;46.90;96100.22;5438394;26;20238;-80
2024/04/14 02:06:19;;;;;;;3.38;1.20;;;;;;;17.95;47.17;96099.31;5433085;26;20234;-80
2024/04/14 02:08:45;;;;;;;1.20;0.90;;;;;;;17.91;47.58;96097.19;5434768;26;20257;-80
2024/04/14 02:11:10;;;;;;;1.55;1.20;;;;;;;17.89;47.90;96097.38;5401947;26;20279;-80
2024/04/14 02:13:35;;;;;;;1.88;1.20;;;;;;;17.96;47.66;96094.84;5417129;26;20247;-80
2024/04/14 02:16:01;;;;;;;3.00;1.20;;;;;;;17.82;47.86;96085.94;5442128;26;20234;-80
2024/04/14 02:18:27;;;;;;;4.70;1.20;;;;;;;17.97;47.71;96088.59;5436677;26;20283;-80
2024/04/14 02:20:52;;;;;;;3.08;1.40;;;;;;;17.98;47.84;96088.41;5429574;26;20293;-80
2024/04/14 02:23:19;;;;;;;3.72;1.20;;;;;;;17.96;47.83;96090.41;5396525;26;20241;-80
2024/04/14 02:25:56;;;;;;;1.58;1.25;;;;;;;17.90;47.81;96082.44;5427692;26;20242;-80
2024/04/14 02:28:21;;;;;;;1.98;1.30;;;;;;;17.93;47.97;96079.44;5392077;26;20250;-80
2024/04/14 02:30:46;;;;;;;1.15;1.05;;;;;;;17.93;47.94;96082.88;5432736;26;20293;-80
2024/04/14 02:33:12;;;;;;;1.95;1.30;;;;;;;17.89;48.22;96086.88;5432315;26;20720;-80
2024/04/14 02:35:40;;;;;;;2.13;1.27;;;;;;;17.83;48.07;96079.69;5446211;26;20785;-81
2024/04/14 02:38:05;;;;;;;1.73;1.10;;;;;;;17.79;47.98;96079.25;5424208;26;20274;-80
2024/04/14 02:40:30;;;;;;;3.30;1.30;;;;;;;17.77;48.04;96080.44;5421925;26;20235;-81
2024/04/14 02:42:56;;;;;;;2.17;1.38;;;;;;;17.69;48.74;96080.47;5431575;26;20239;-80
2024/04/14 02:45:21;;;;;;;3.17;1.30;;;;;;;17.70;48.39;96075.06;5418497;26;20234;-80
2024/04/14 02:47:46;;;;;;;1.80;1.27;;;;;;;17.70;47.79;96080.31;5429154;26;20270;-80
2024/04/14 02:50:12;;;;;;;3.65;1.40;;;;;;;17.71;48.58;96066.19;5399677;26;20326;-80
2024/04/14 02:52:37;;;;;;;3.63;1.20;;;;;;;17.76;48.21;96071.75;5445229;26;20230;-80
2024/04/14 02:55:02;;;;;;;3.58;1.30;;;;;;;17.79;48.14;96079.25;5399876;26;20242;-80
2024/04/14 02:57:28;;;;;;;4.25;1.45;;;;;;;17.77;48.06;96070.75;5426204;26;20772;-79
2024/04/14 02:59:53;;;;;;;4.22;1.38;;;;;;;17.77;48.28;96062.06;5433918;26;20289;-80
2024/04/14 03:02:18;;;;;;;4.30;1.40;;;;;;;17.76;48.21;96071.75;5405283;26;20268;-80
2024/04/14 03:04:47;;;;;;;1.23;1.08;;;;;;;17.76;48.45;96070.94;5434923;26;20350;-80
2024/04/14 03:07:13;;;;;;;1.90;1.50;;;;;;;17.75;48.10;96072.72;5400231;26;20242;-80
2024/04/14 03:09:38;;;;;;;2.15;1.30;;;;;;;17.77;48.21;96064.69;5403474;26;20250;-80
2024/04/14 03:12:04;;;;;;;1.98;1.23;;;;;;;17.67;48.20;96066.69;5438272;26;20316;-80
2024/04/14 03:14:29;;;;;;;1.80;1.55;;;;;;;17.69;48.15;96065.53;5419822;26;20238;-80
2024/04/14 03:16:54;;;;;;;2.85;1.30;;;;;;;17.67;48.48;96062.28;5446481;26;20630;-80
2024/04/14 03:19:20;;;;;;;2.10;1.13;;;;;;;17.69;47.81;96073.41;5406966;26;20603;-80
2024/04/14 03:21:47;;;;;;;1.30;1.20;;;;;;;17.67;47.85;96071.94;5428379;26;20232;-80
2024/04/14 03:24:13;;;;;;;1.40;1.08;;;;;;;17.69;47.98;96072.59;5430702;26;20256;-79
2024/04/14 03:26:38;;;;;;;1.60;1.40;;;;;;;17.78;47.81;96071.56;5447353;26;20231;-80
2024/04/14 03:29:04;;;;;;;2.88;1.58;;;;;;;17.78;48.19;96071.56;5403328;26;20588;-80
2024/04/14 03:31:29;;;;;;;1.42;1.27;;;;;;;17.76;48.00;96074.38;5430411;26;20720;-80
2024/04/14 03:33:54;;;;;;;1.75;1.17;;;;;;;17.76;47.90;96071.75;5432848;26;20715;-80
2024/04/14 03:36:20;;;;;;;2.75;1.25;;;;;;;17.80;47.83;96072.19;5439881;26;20284;-80
2024/04/14 03:38:45;;;;;;;1.10;1.00;;;;;;;17.77;48.01;96070.75;5430598;26;20259;-79
2024/04/14 03:41:11;;;;;;;4.38;1.60;;;;;;;17.79;48.03;96068.75;5397169;26;20925;-80
2024/04/14 03:43:36;;;;;;;2.35;1.13;;;;;;;17.83;47.99;96063.94;5409308;26;20238;-79
2024/04/14 03:46:01;;;;;;;2.20;1.23;;;;;;;17.87;48.07;96072.28;5433377;26;20255;-80
2024/04/14 03:48:27;;;;;;;2.30;1.40;;;;;;;17.87;48.09;96065.22;5427042;26;20232;-80
2024/04/14 03:50:52;;;;;;;1.45;1.20;;;;;;;17.82;48.28;96073.63;5441630;26;20289;-79
2024/04/14 03:53:18;;;;;;;2.03;1.33;;;;;;;17.88;48.31;96071.28;5443926;26;20234;-80
2024/04/14 03:55:43;;;;;;;2.97;1.33;;;;;;;17.78;48.67;96067.13;5401942;26;20238;-80
2024/04/14 03:58:08;;;;;;;2.05;1.23;;;;;;;17.87;48.37;96070.47;5429289;26;20808;-80
2024/04/14 04:00:34;;;;;;;3.42;1.45;;;;;;;17.83;48.62;96070.00;5404238;26;20609;-79
2024/04/14 04:02:59;;;;;;;2.15;1.50;;;;;;;17.85;48.91;96076.91;5435979;26;20239;-80
2024/04/14 04:05:24;;;;;;;3.20;1.40;;;;;;;17.86;48.69;96091.69;5440774;26;20234;-80
2024/04/14 04:07:50;;;;;;;2.75;1.10;;;;;;;17.93;48.33;96082.06;5416530;26;20280;-80
2024/04/14 04:10:15;;;;;;;3.13;1.30;;;;;;;17.84;48.48;96078.69;5436669;26;20239;-81
2024/04/14 04:12:42;;;;;;;2.88;1.45;;;;;;;17.86;48.37;96082.00;5396514;26;20244;-80
2024/04/14 04:15:07;;;;;;;4.22;1.05;;;;;;;17.89;48.49;96078.19;5441221;26;20529;-80
2024/04/14 04:17:32;;;;;;;2.08;1.33;;;;;;;17.82;48.75;96078.06;5400884;26;20314;-80
2024/04/14 04:19:58;;;;;;;1.70;1.30;;;;;;;17.79;48.87;96078.44;5431464;26;20243;-80
2024/04/14 04:22:23;;;;;;;4.30;1.40;;;;;;;17.86;48.89;96078.53;5423257;26;20249;-80
2024/04/14 04:24:48;;;;;;;1.67;1.40;;;;;;;17.78;48.98;96079.44;5397135;26;20266;-80
2024/04/14 04:27:13;;;;;;;3.33;1.25;;;;;;;17.72;49.43;96078.34;5388812;26;20269;-80
2024/04/14 04:29:39;;;;;;;3.15;1.70;;;;;;;17.70;49.63;96074.25;5392652;26;20628;-80
2024/04/14 04:32:04;;;;;;;2.35;1.45;;;;;;;17.73;49.48;96073.88;5431095;26;20781;-80
2024/04/14 04:34:29;;;;;;;3.92;1.40;;;;;;;17.70;49.40;96082.94;5427600;26;20733;-80
2024/04/14 04:36:55;;;;;;;2.47;1.15;;;;;;;17.70;49.64;96080.31;5444602;26;20234;-80
2024/04/14 04:39:20;;;;;;;2.35;1.38;;;;;;;17.75;49.15;96077.97;5425448;26;20289;-80
2024/04/14 04:41:45;;;;;;;5.43;1.33;;;;;;;17.74;49.66;96076.34;5441214;26;20656;-80
2024/04/14 04:44:11;;;;;;;1.70;1.33;;;;;;;17.81;49.56;96073.81;5428078;26;20248;-80
2024/04/14 04:46:36;;;;;;;2.42;1.40;;;;;;;17.75;50.02;96075.34;5403149;26;20311;-80
2024/04/14 04:49:02;;;;;;;4.60;1.55;;;;;;;17.82;50.23;96078.88;5429035;26;20242;-80
2024/04/14 04:51:27;;;;;;;1.40;1.25;;;;;;;17.92;50.21;96077.81;5388446;26;20242;-80
2024/04/14 04:53:53;;;;;;;4.10;1.50;;;;;;;17.91;50.07;96071.75;5406552;26;20275;-80
2024/04/14 04:56:18;;;;;;;1.50;1.40;;;;;;;18.01;49.98;96076.72;5427757;26;20291;-80
2024/04/14 04:58:43;;;;;;;3.45;1.55;;;;;;;18.08;49.79;96085.53;5427049;26;20257;-80
2024/04/14 05:01:09;;;;;;;3.17;1.50;;;;;;;17.94;49.83;96081.91;5434878;26;20238;-79
2024/04/14 05:03:34;;;;;;;2.25;1.35;;;;;;;18.24;49.26;96081.91;5396832;26;20732;-80
2024/04/14 05:06:00;;;;;;;4.38;1.40;;;;;;;18.28;49.42;96086.59;5400058;26;20270;-79
2024/04/14 05:08:26;;;;;;;3.40;1.48;;;;;;;18.30;49.13;96089.88;5434285;26;20238;-79
2024/04/14 05:10:56;;;;;;;2.75;1.35;;;;;;;18.19;49.34;96082.44;5403422;26;20246;-80
2024/04/14 05:13:22;;;;;;;3.75;1.50;;;;;;;18.25;49.17;96083.53;5428861;26;20235;-80
2024/04/14 05:15:47;;;;;;;1.77;1.40;;;;;;;18.35;49.10;96089.31;5395661;26;20258;-80
2024/04/14 05:18:13;;;;;;;1.92;1.42;;;;;;;18.32;49.08;96095.75;5438839;26;20233;-80
2024/04/14 05:20:39;;;;;;;5.43;1.50;;;;;;;18.39;48.95;96095.88;5427509;26;20315;-84
2024/04/14 05:23:05;;;;;;;1.48;1.20;;;;;;;18.56;48.63;96101.75;5428219;26;20683;-81
2024/04/14 05:25:30;;;;;;;2.38;1.35;;;;;;;18.67;48.02;96103.94;5423653;26;20823;-78
2024/04/14 05:27:56;;;;;;;4.10;1.40;;;;;;;18.59;48.53;96107.44;5426584;26;20246;-81
2024/04/14 05:30:21;;;;;;;2.53;1.50;;;;;;;18.63;48.22;96107.88;5432667;26;20591;-80
2024/04/14 05:32:46;;;;;;;3.78;1.55;;;;;;;18.73;47.84;96112.88;5437300;26;20238;-80
2024/04/14 05:35:13;;;;;;;2.90;1.48;;;;;;;18.80;48.19;96106.69;5402039;26;20242;-81
2024/04/14 05:37:38;;;;;;;2.00;1.65;;;;;;;18.71;48.17;96110.44;5421414;26;20247;-81
2024/04/14 05:40:05;;;;;;;2.20;1.50;;;;;;;18.68;48.25;96109.00;5431575;26;20289;-81
2024/04/14 05:42:30;;;;;;;4.43;1.48;;;;;;;18.78;48.17;96116.59;5430671;26;20277;-82
2024/04/14 05:44:55;;;;;;;3.65;1.50;;;;;;;18.86;48.17;96115.69;5429414;26;20245;-81
2024/04/14 05:47:21;;;;;;;2.95;1.30;;;;;;;18.88;47.97;96117.13;5434376;26;20242;-80
2024/04/14 05:49:46;;;;;;;2.20;1.50;;;;;;;18.89;47.79;96117.94;5434266;26;20245;-82
2024/04/14 05:52:11;;;;;;;1.55;1.30;;;;;;;18.87;47.76;96127.84;5398311;26;20238;-80
2024/04/14 05:54:37;;;;;;;2.13;1.30;;;;;;;18.99;47.40;96115.81;5430763;26;20298;-81
2024/04/14 05:57:02;;;;;;;2.72;1.85;;;;;;;19.06;47.59;96119.34;5403672;26;20265;-82
2024/04/14 05:59:28;;;;;;;3.20;1.60;;;;;;;18.93;48.02;96117.38;5432127;26;20246;-81
2024/04/14 06:01:53;;;;;;;3.42;1.73;;;;;;;19.14;47.56;96121.03;5426233;26;20727;-81
2024/04/14 06:04:18;;;;;;;2.70;1.50;;;;;;;19.22;47.51;96123.56;5414984;26;20243;-80
2024/04/14 06:06:46;;;;;;;3.38;1.40;;;;;;;19.18;47.99;96127.56;5429549;26;20254;-81
2024/04/14 06:09:12;;;;;;;2.25;1.70;;;;;;;19.41;47.46;96133.47;5394737;26;20253;-83
2024/04/14 06:11:37;;;;;;;7.32;2.03;;;;;;;19.43;47.73;96131.44;5434855;26;20242;-81
2024/04/14 06:14:03;;;;;;;3.88;1.60;;;;;;;19.49;47.34;96137.78;5430627;26;20257;-82
2024/04/14 06:16:28;;;;;;;4.00;1.63;;;;;;;19.45;47.78;96136.56;5390272;26;20261;-83
2024/04/14 06:18:53;;;;;;;1.35;1.25;;;;;;;19.44;47.97;96141.00;5427629;26;20281;-81
2024/04/14 06:21:19;;;;;;;2.25;1.60;;;;;;;19.46;48.47;96136.34;5426043;26;20740;-80
2024/04/14 06:23:44;;;;;;;2.40;1.50;;;;;;;19.45;48.26;96141.81;5429038;26;20783;-81
2024/04/14 06:26:09;;;;;;;2.47;1.80;;;;;;;19.49;48.08;96141.25;5433945;26;20801;-80
2024/04/14 06:28:35;;;;;;;4.88;1.60;;;;;;;19.60;48.29;96139.13;5430778;26;20274;-81
2024/04/14 06:31:00;;;;;;;2.85;1.55;;;;;;;19.71;47.95;96144.72;5400060;26;20298;-80
2024/04/14 06:33:25;;;;;;;1.98;1.20;;;;;;;20.00;47.76;96146.38;5429164;26;20243;-81
2024/04/14 06:35:51;;;;;;;1.63;1.45;;;;;;;19.96;47.64;96147.75;5426628;26;20322;-81
2024/04/14 06:38:17;;;;;;;2.83;1.38;;;;;;;20.15;47.12;96148.91;5405934;26;20300;-80
2024/04/14 06:40:42;;;;;;;2.05;1.73;;;;;;;19.98;47.71;96145.75;5393999;26;20326;-81
2024/04/14 06:43:07;;;;;;;3.38;1.80;;;;;;;20.02;47.61;96146.97;5433429;26;20349;-80
2024/04/14 06:45:33;;;;;;;4.05;1.73;;;;;;;19.93;47.95;96147.31;5418320;26;20268;-80
2024/04/14 06:47:58;;;;;;;2.67;1.67;;;;;;;19.87;48.04;96143.63;5429394;26;20247;-80
2024/04/14 06:50:23;;;;;;;3.50;1.77;;;;;;;20.19;47.63;96144.06;5433949;26;20284;-80
2024/04/14 06:52:49;;;;;;;2.28;1.45;;;;;;;20.11;48.00;96141.56;5434844;26;20269;-79
2024/04/14 06:55:15;;;;;;;3.60;1.80;;;;;;;20.08;47.83;96134.88;5428642;26;20277;-79
2024/04/14 06:57:41;;;;;;;4.15;1.90;;;;;;;19.95;47.94;96135.56;5426567;26;20287;-81
2024/04/14 07:00:07;;;;;;;4.75;2.13;;;;;;;19.95;48.45;96142.66;5428534;26;20247;-80
2024/04/14 07:02:33;;;;;;;2.65;2.00;;;;;;;19.92;48.33;96145.69;5391267;26;20344;-80
2024/04/14 07:04:58;;;;;;;2.70;1.70;;;;;;;20.21;48.27;96147.31;5403662;26;20242;-81
2024/04/14 07:07:23;;;;;;;2.88;1.75;;;;;;;20.14;48.14;96139.34;5422127;26;20238;-80
2024/04/14 07:09:48;;;;;;;4.68;1.90;;;;;;;20.30;47.74;96130.31;5428439;26;20250;-80
2024/04/14 07:12:14;;;;;;;2.97;1.92;;;;;;;20.18;48.01;96135.34;5436451;26;20276;-80
2024/04/14 07:14:39;;;;;;;2.63;1.70;;;;;;;20.51;47.50;96138.22;5423250;26;20291;-80
2024/04/14 07:17:05;;;;;;;3.15;1.90;;;;;;;20.30;47.94;96143.50;5425093;26;20266;-81
2024/04/14 07:19:30;;;;;;;2.58;1.85;;;;;;;20.41;47.43;96145.63;5417378;26;20922;-81
2024/04/14 07:21:55;;;;;;;3.00;1.85;;;;;;;20.46;47.57;96131.88;5417565;26;20286;-81
2024/04/14 07:24:21;;;;;;;1.95;1.75;;;;;;;20.54;47.33;96142.28;5422004;26;20600;-81
2024/04/14 07:26:47;;;;;;;2.67;1.88;;;;;;;20.74;47.12;96137.09;5423181;26;20243;-81
2024/04/14 07:29:13;;;;;;;3.63;1.85;;;;;;;20.79;46.70;96147.88;5409779;26;20234;-80
2024/04/14 07:31:39;;;;;;;2.38;1.88;;;;;;;20.73;47.09;96144.19;5396628;26;20259;-81
2024/04/14 07:34:04;;;;;;;3.35;2.03;;;;;;;21.07;46.92;96156.50;5400216;26;20623;-81
2024/04/14 07:36:29;;;;;;;3.15;1.90;;;;;;;21.05;46.78;96149.81;5422218;26;20638;-80
2024/04/14 07:38:55;;;;;;;2.58;1.80;;;;;;;21.23;46.43;96154.53;5420528;26;20270;-81
2024/04/14 07:41:20;;;;;;;6.55;2.00;;;;;;;21.39;46.01;96143.63;5388254;26;20247;-80
2024/04/14 07:43:46;;;;;;;3.97;1.70;;;;;;;21.32;46.23;96145.44;5424011;26;20572;-81
2024/04/14 07:46:12;;;;;;;2.70;1.90;;;;;;;21.29;46.60;96148.47;5396673;26;20638;-81
2024/04/14 07:48:37;;;;;;;3.63;2.03;;;;;;;21.18;46.75;96148.00;5415474;26;20785;-81
2024/04/14 07:51:03;;;;;;;2.45;1.80;;;;;;;21.38;46.41;96155.19;5391821;26;20348;-80
2024/04/14 07:53:28;;;;;;;4.07;1.95;;;;;;;21.53;45.92;96145.25;5382820;26;20717;-80
2024/04/14 07:55:54;;;;;;;3.58;1.88;;;;;;;21.69;45.76;96152.81;5422763;26;20320;-81
2024/04/14 07:58:20;;;;;;;2.85;1.80;;;;;;;21.71;45.88;96157.88;5398303;26;20239;-81
2024/04/14 08:00:46;;;;;;;2.47;1.88;;;;;;;21.51;46.01;96152.59;5434129;26;20241;-81
2024/04/14 08:03:11;;;;;;;2.10;1.77;;;;;;;21.58;45.85;96156.06;5427242;26;20274;-81
2024/04/14 08:05:36;;;;;;;3.25;2.50;;;;;;;21.67;45.70;96152.22;5383339;26;20270;-81
2024/04/14 08:08:03;;;;;;;3.55;2.00;;;;;;;21.53;45.96;96162.94;5400279;26;20271;-80
2024/04/14 08:10:28;;;;;;;2.67;1.92;;;;;;;21.77;45.76;96162.38;5428208;26;20298;-81
2024/04/14 08:12:53;;;;;;;3.15;2.13;;;;;;;21.89;45.84;96158.09;5425213;26;20244;-81
2024/04/14 08:15:18;;;;;;;4.70;2.08;;;;;;;21.75;45.52;96162.59;5423218;26;20572;-81
2024/04/14 08:17:44;;;;;;;2.35;1.83;;;;;;;21.86;45.46;96165.63;5424897;26;20615;-84
2024/04/14 08:20:11;;;;;;;4.53;2.10;;;;;;;21.99;44.58;96160.34;5394618;26;20648;-83
2024/04/14 08:22:36;;;;;;;4.05;2.03;;;;;;;22.03;44.89;96167.66;5388671;26;20649;-82
2024/04/14 08:25:01;;;;;;;3.83;1.92;;;;;;;22.02;45.34;96155.47;5423451;26;20231;-81
2024/04/14 08:27:27;;;;;;;5.07;2.10;;;;;;;22.04;45.41;96155.25;5416191;26;20797;-80
2024/04/14 08:29:52;;;;;;;3.17;1.85;;;;;;;22.15;44.54;96161.78;5423595;26;20270;-82
2024/04/14 08:32:17;;;;;;;3.03;2.03;;;;;;;22.37;44.22;96165.03;5425772;26;20235;-83
2024/04/14 08:34:43;;;;;;;3.05;1.95;;;;;;;22.15;44.42;96159.16;5398660;26;20266;-81
2024/04/14 08:37:08;;;;;;;4.95;1.95;;;;;;;22.54;44.27;96163.56;5397347;26;20243;-81
2024/04/14 08:39:34;;;;;;;3.38;1.90;;;;;;;22.33;43.97;96156.69;5422755;26;20297;-80
2024/04/14 08:41:59;;;;;;;4.60;2.17;;;;;;;22.28;44.50;96164.44;5429789;26;20561;-81
2024/04/14 08:44:25;;;;;;;2.47;1.85;;;;;;;22.66;43.90;96167.19;5432745;26;20973;-81
2024/04/14 08:46:51;;;;;;;2.83;1.90;;;;;;;22.46;43.68;96166.44;5417608;26;20621;-81
2024/04/14 08:49:16;;;;;;;3.35;2.20;;;;;;;22.47;44.47;96168.06;5427025;26;20619;-81
2024/04/14 08:51:42;;;;;;;2.72;2.00;;;;;;;22.16;43.94;96161.56;5419982;26;20691;-81
2024/04/14 08:54:07;;;;;;;3.53;2.13;;;;;;;22.68;44.10;96170.44;5421157;26;20711;-81
2024/04/14 08:56:33;;;;;;;2.90;2.10;;;;;;;22.98;43.44;96157.56;5396284;26;20311;-81
2024/04/14 08:59:06;;;;;;;2.58;2.10;;;;;;;23.01;43.01;96167.72;5428168;26;20350;-84
2024/04/14 09:01:33;;;;;;;5.00;2.20;;;;;;;22.70;43.28;96162.28;5426291;26;20258;-81
2024/04/14 09:04:00;;;;;;;4.05;2.20;;;;;;;22.67;43.27;96163.53;5416957;26;20282;-82
2024/04/14 09:06:26;;;;;;;4.03;2.03;;;;;;;23.13;43.36;96159.91;5389367;26;20246;-83
2024/04/14 09:08:52;;;;;;;3.47;3.17;;;;;;;23.03;43.30;96159.56;5399478;26;20262;-81
2024/04/14 09:11:17;;;;;;;3.58;2.28;;;;;;;22.63;43.61;96164.16;5429963;26;20589;-79
2024/04/14 09:13:42;;;;;;;4.05;2.05;;;;;;;22.52;43.81;96161.13;5382255;26;20674;-79
2024/04/14 09:16:10;;;;;;;5.25;2.10;;;;;;;22.89;43.65;96161.47;5403347;26;20222;-80
2024/04/14 09:18:36;;;;;;;2.15;1.95;;;;;;;23.15;43.73;96163.19;5429299;26;20356;-80
2024/04/14 09:21:01;;;;;;;2.40;1.95;;;;;;;22.83;43.97;96156.97;5429697;26;20297;-81
2024/04/14 09:23:27;;;;;;;3.08;2.80;;;;;;;23.20;43.13;96154.59;5421433;26;20806;-81
2024/04/14 09:25:53;;;;;;;3.30;2.40;;;;;;;23.32;42.33;96160.84;5436594;26;20298;-80
2024/04/14 09:28:18;;;;;;;2.95;1.80;;;;;;;23.50;42.48;96160.13;5439826;26;20226;-81
2024/04/14 09:30:43;;;;;;;2.78;2.10;;;;;;;23.59;42.76;96162.38;5396507;26;21147;-82
2024/04/14 09:33:09;;;;;;;2.28;2.00;;;;;;;23.43;43.00;96171.59;5430956;26;20238;-81
2024/04/14 09:35:34;;;;;;;2.70;2.17;;;;;;;23.36;42.87;96162.06;5432551;26;20362;-81
2024/04/14 09:37:59;;;;;;;2.83;2.20;;;;;;;23.39;42.79;96170.38;5423162;26;20320;-81
2024/04/14 09:40:25;;;;;;;3.50;1.88;;;;;;;23.24;42.94;96167.22;5415639;26;20348;-80
2024/04/14 09:42:57;;;;;;;4.93;2.30;;;;;;;23.36;43.75;96167.34;5432867;26;20231;-80
2024/04/14 09:45:23;;;;;;;3.90;2.35;;;;;;;23.66;42.60;96162.28;5421239;26;20235;-80
2024/04/14 09:47:52;;;;;;;3.78;1.98;;;;;;;23.61;42.30;96162.94;5421039;26;20291;-80
2024/04/14 09:50:19;;;;;;;3.45;1.92;;;;;;;23.62;42.35;96161.13;5393805;26;20250;-80
2024/04/14 09:52:46;;;;;;;4.00;2.47;;;;;;;23.22;42.84;96160.50;5402221;26;20327;-81
2024/04/14 09:55:12;;;;;;;4.35;2.60;;;;;;;23.73;42.70;96168.38;5427386;26;20272;-81
2024/04/14 09:57:37;;;;;;;2.00;1.63;;;;;;;23.80;42.70;96161.19;5425057;26;20303;-81
2024/04/14 10:00:03;;;;;;;3.95;2.13;;;;;;;23.93;41.98;96161.06;5435447;26;20358;-81
2024/04/14 10:02:32;;;;;;;2.33;1.90;;;;;;;24.04;41.44;96153.47;5399215;26;20248;-80
2024/04/14 10:04:58;;;;;;;2.10;1.90;;;;;;;24.09;41.86;96146.47;5406050;26;20337;-81
2024/04/14 10:07:24;;;;;;;4.32;1.88;;;;;;;23.88;42.52;96141.53;5396246;26;20246;-81
2024/04/14 10:09:50;;;;;;;3.72;2.97;;;;;;;23.93;41.75;96152.31;5400249;26;20648;-81
2024/04/14 10:12:19;;;;;;;2.10;1.77;;;;;;;24.15;41.43;96140.28;5412781;26;20237;-81
2024/04/14 10:14:45;;;;;;;5.47;1.98;;;;;;;24.02;40.66;96146.50;5420240;26;20610;-81
2024/04/14 10:17:15;;;;;;;3.15;2.00;;;;;;;23.84;40.23;96141.16;5402292;26;20242;-81
2024/04/14 10:19:50;;;;;;;3.65;2.17;;;;;;;24.14;40.59;96143.16;5420497;26;20267;-81
2024/04/14 10:22:16;;;;;;;2.78;2.03;;;;;;;24.00;40.85;96137.16;5426926;26;20234;-81
2024/04/14 10:24:49;;;;;;;3.65;1.90;;;;;;;24.29;40.13;96135.66;5431244;26;20344;-81
2024/04/14 10:27:15;;;;;;;3.83;2.25;;;;;;;23.91;40.97;96139.25;5444567;26;20268;-82
2024/04/14 10:29:41;;;;;;;4.68;1.88;;;;;;;23.84;40.70;96135.84;5427678;26;20754;-82
2024/04/14 10:32:10;;;;;;;4.07;2.08;;;;;;;23.71;40.51;96138.63;5402494;26;20299;-81
2024/04/14 10:34:35;;;;;;;2.83;2.17;;;;;;;23.99;39.19;96124.91;5426215;26;20339;-79
2024/04/14 10:37:01;;;;;;;2.78;2.05;;;;;;;24.07;38.91;96137.09;5411014;26;20254;-81
2024/04/14 10:39:26;;;;;;;4.30;1.88;;;;;;;23.83;40.55;96131.56;5424125;26;20608;-79
2024/04/14 10:41:51;;;;;;;2.78;2.33;;;;;;;24.18;39.94;96133.72;5439564;26;20238;-79
2024/04/14 10:44:17;;;;;;;3.70;2.00;;;;;;;24.32;40.13;96122.00;5426402;26;20286;-80
2024/04/14 10:46:43;;;;;;;4.72;2.05;;;;;;;24.38;40.63;96126.41;5427606;26;20235;-80
2024/04/14 10:49:09;;;;;;;2.38;1.95;;;;;;;24.45;40.79;96123.69;5423931;26;20667;-80
2024/04/14 10:51:35;;;;;;;3.47;1.88;;;;;;;24.50;40.12;96122.00;5397785;26;20877;-81
2024/04/14 10:54:01;;;;;;;3.30;1.98;;;;;;;24.67;37.95;96119.56;5418567;26;20272;-82
2024/04/14 10:56:27;;;;;;;2.83;2.30;;;;;;;24.49;38.28;96114.28;5424790;26;20340;-81
2024/04/14 10:58:52;;;;;;;5.22;2.10;;;;;;;24.14;40.84;96111.31;5405838;26;20715;-80
2024/04/14 11:01:18;;;;;;;4.60;2.10;;;;;;;24.25;40.68;96108.75;5429706;26;20285;-80
2024/04/14 11:03:44;;;;;;;3.20;2.00;;;;;;;24.69;38.45;96108.72;5414711;26;20342;-81
2024/04/14 11:06:09;;;;;;;3.58;2.00;;;;;;;24.35;39.09;96102.97;5398216;26;20277;-80
2024/04/14 11:08:34;;;;;;;3.20;1.90;;;;;;;24.52;38.76;96097.88;5398624;26;20269;-80
2024/04/14 11:11:01;;;;;;;3.83;1.95;;;;;;;24.40;38.56;96107.63;5431557;26;20238;-80
2024/04/14 11:13:27;;;;;;;3.78;1.83;;;;;;;24.32;37.92;96103.41;5424888;26;20330;-81
2024/04/14 11:15:57;;;;;;;4.18;2.10;;;;;;;24.34;38.18;96103.19;5427478;26;20284;-80
2024/04/14 11:18:26;;;;;;;3.55;2.30;;;;;;;24.31;39.12;96096.47;5439975;26;20237;-80
2024/04/14 11:20:51;;;;;;;3.17;2.30;;;;;;;24.71;36.92;96102.16;5406004;26;20286;-80
2024/04/14 11:23:16;;;;;;;5.38;2.20;;;;;;;24.70;38.21;96094.41;5435827;26;20280;-80
2024/04/14 11:25:42;;;;;;;9.15;3.20;;;;;;;24.74;37.10;96087.63;5425199;26;20364;-80